Terminal Aerodrome Forecast
Issued by NWS Cleveland, OH

Home | Current Version | Previous Version | Text Only | Print | Product List | Glossary On
Versions: 1 2 3 4 5 6 7 8 9 10 11 12 13 14 15 16 17 18 19 20 21 22 23 24 25
000
FTUS41 KCLE 271200 AAA
TAFCLE
TAF AMD
KCLE 271245Z 2713/2818 34010KT 6SM -SHRA SCT008 OVC015
      TEMPO 2713/2715 5SM -SHRA OVC015
     FM271600 34010KT P6SM OVC020
     FM272100 36010KT P6SM OVC035
     FM280000 36008KT P6SM SCT035 BKN050
     FM280600 30004KT P6SM BKN050
     FM281400 36008KT P6SM BKN040=

USA.gov is the U.S. government's official web portal to all federal, state and local government web resources and services.